EDDH/HAM METAR and TAF weather

Enter ICAO airport designator
Station Type Date Time Source
EDDH METAR 2019/08/19 12:50 UTC NOAA

EDDH 191250Z 23014KT 9999 SCT041 22/12 Q1014 TEMPO 24015G25KT


Station Type Date Time Source
EDDH Decoded METAR 2019/08/19 12:50 UTC NOAA

Station name not available
Aug 19, 2019 - 08:50 AM EDT / 2019.08.19 1250 UTC
Wind: from the SW (230 degrees) at 16 MPH (14 KT):0
Visibility: greater than 7 mile(s):0
Sky conditions: partly cloudy
Temperature: 71 F (22 C)
Dew Point: 53 F (12 C)
Relative Humidity: 53%
Pressure (altimeter): 29.94 in. Hg (1014 hPa)
ob: EDDH 191250Z 23014KT 9999 SCT041 22/12 Q1014 TEMPO 24015G25KT
cycle: 13

Station Type Date Time Source
EDDH TAF 2019/08/19 12:27 UTC NOAA

TAF EDDH 191100Z 1912/2018 23013KT 9999 SCT040
TEMPO 1912/1916 24015G25KT SCT030TCU
BECMG 1916/1919 20005KT
BECMG 2006/2008 26009KT PROB30
TEMPO 2016/2018 30015KT SHRA SCT025TCU

Example: see airport list